This is the latest recevied weather packets stored in our database for station/object AD6NH. If no packets are shown the sender has not sent any weather packets the latest 10 day(s).
| Time | Temp. | Humidity | Pressure | Rain* | Wind** | Luminosity | Snow |
|---|---|---|---|---|---|---|---|
| 1777912022 | 18.33° C | 55% | 1016.4 hPa | 0 mm | - | - | - |
| 1777911422 | 17.78° C | 57% | 1016.3 hPa | 0 mm | - | - | - |
| 1777910823 | 17.78° C | 55% | 1016.3 hPa | 0 mm | - | - | - |
| 1777910222 | 17.78° C | 57% | 1016.2 hPa | 0 mm | - | - | - |
| 1777909623 | 18.33° C | 55% | 1016.3 hPa | 0 mm | - | - | - |
| 1777909022 | 17.22° C | 59% | 1016.4 hPa | 0 mm | - | - | - |
| 1777908422 | 16.67° C | 60% | 1016.2 hPa | 0 mm | - | - | - |
| 1777907822 | 16.67° C | 60% | 1016.1 hPa | 0 mm | - | - | - |
| 1777907222 | 17.22° C | 60% | 1015.9 hPa | 0 mm | - | - | - |
| 1777906623 | 16.11° C | 64% | 1016 hPa | 0 mm | - | - | - |
| 1777906022 | 15.56° C | 66% | 1016 hPa | 0 mm | - | - | - |
| 1777905422 | 15.56° C | 68% | 1016 hPa | 0 mm | - | - | - |
| 1777904822 | 15.56° C | 68% | 1016 hPa | 0 mm | - | - | - |
| 1777904222 | 15.56° C | 69% | 1015.7 hPa | 0 mm | - | - | - |
| 1777903622 | 15.56° C | 69% | 1015.9 hPa | 0 mm | - | - | - |
| 1777903022 | 15° C | 71% | 1015.8 hPa | 0 mm | - | - | - |
| 1777902422 | 14.44° C | 71% | 1015.8 hPa | 0 mm | - | - | - |
| 1777901822 | 13.89° C | 73% | 1015.7 hPa | 0 mm | - | - | - |
| 1777901222 | 13.89° C | 72% | 1015.8 hPa | 0 mm | - | - | - |
| 1777900622 | 14.44° C | 72% | 1015.7 hPa | 0 mm | - | - | - |
| 1777900022 | 14.44° C | 71% | 1015.8 hPa | 0 mm | - | - | - |
| 1777899422 | 14.44° C | 69% | 1015.5 hPa | 0 mm | - | - | - |
| 1777898822 | 14.44° C | 70% | 1015.5 hPa | 0 mm | - | - | - |
| 1777898222 | 15° C | 69% | 1015.5 hPa | 0 mm | - | - | - |
| 1777897622 | 15° C | 71% | 1015.6 hPa | 0 mm | - | - | - |
* Rain latest hour (hover to see other rain measurements)
** Current wind speed in m/s (hover to see current wind gust speed)